createdAt,value
2018-03-02T00:35:21.575Z,44.10
2018-03-02T00:39:03.865Z,44.10
2018-03-02T00:46:44.561Z,44.10
2018-03-02T00:53:23.112Z,44.40
2018-03-02T00:56:16.749Z,44.50
2018-03-02T01:05:21.181Z,44.80
2018-03-02T01:08:22.843Z,44.80
2018-03-02T01:15:12.958Z,44.70
2018-03-02T01:18:35.838Z,44.80
2018-03-02T01:21:30.596Z,45.00
2018-03-02T01:24:27.575Z,45.30
2018-03-02T01:27:14.950Z,45.20
2018-03-02T01:33:26.684Z,45.10
2018-03-02T01:36:25.305Z,45.50
2018-03-02T01:39:28.560Z,45.50
2018-03-02T01:42:13.939Z,45.70
2018-03-02T01:44:58.941Z,45.70
2018-03-02T01:51:01.810Z,45.60
2018-03-02T01:53:43.475Z,45.80
2018-03-02T01:56:29.626Z,45.80
2018-03-02T02:02:18.829Z,46.00
2018-03-02T02:26:08.441Z,46.60
2018-03-02T02:32:02.370Z,46.70
2018-03-02T02:35:32.871Z,46.60
2018-03-02T02:38:19.197Z,46.60
2018-03-02T02:41:27.778Z,46.70
2018-03-02T02:45:40.812Z,47.10
2018-03-02T02:48:52.898Z,46.80
2018-03-02T02:51:51.135Z,47.10
2018-03-02T03:00:35.407Z,46.80
2018-03-02T03:06:34.033Z,47.10
2018-03-02T03:12:19.692Z,47.70
2018-03-02T03:15:31.313Z,47.80
2018-03-02T03:18:45.135Z,48.00
2018-03-02T03:21:27.625Z,47.90
2018-03-02T03:24:09.424Z,48.20
2018-03-02T03:27:28.441Z,48.20
2018-03-02T03:30:20.853Z,48.50
2018-03-02T03:33:18.876Z,48.90
2018-03-02T03:36:26.803Z,48.90
2018-03-02T03:39:10.761Z,48.90
2018-03-02T03:42:08.662Z,48.90
2018-03-02T03:45:15.170Z,49.20
2018-03-02T03:48:10.703Z,49.50
2018-03-02T03:54:42.037Z,49.30
2018-03-02T03:57:44.885Z,49.30
2018-03-02T04:01:01.893Z,50.50
2018-03-02T04:03:48.856Z,50.30
2018-03-02T04:15:45.158Z,50.20
2018-03-02T04:18:31.852Z,50.10
2018-03-02T04:21:33.494Z,50.30
2018-03-02T04:24:34.095Z,50.40
2018-03-02T04:27:37.302Z,50.90
2018-03-02T04:33:23.939Z,51.00
2018-03-02T04:48:20.098Z,51.30
2018-03-02T04:51:12.988Z,51.00
